createdAt,value
2022-08-02T00:06:27.721Z,19.49
2022-08-02T00:16:37.494Z,19.34
2022-08-02T00:26:40.452Z,19.32
2022-08-02T00:36:42.402Z,19.39
2022-08-02T00:46:44.848Z,19.33
2022-08-02T00:56:50.061Z,19.16
2022-08-02T01:06:53.245Z,18.99
2022-08-02T01:17:04.180Z,18.78
2022-08-02T01:27:41.882Z,18.56
2022-08-02T01:37:49.162Z,18.51
2022-08-02T01:47:54.100Z,18.37
2022-08-02T01:58:05.320Z,18.03
2022-08-02T02:08:09.921Z,17.91
2022-08-02T02:18:18.544Z,17.89
2022-08-02T02:28:24.566Z,17.64
2022-08-02T02:38:31.082Z,17.60
2022-08-02T02:48:35.601Z,17.91
2022-08-02T02:58:38.645Z,18.20
2022-08-02T03:08:40.678Z,18.29
2022-08-02T03:18:44.396Z,18.31
2022-08-02T03:28:46.323Z,18.46
2022-08-02T03:38:50.272Z,18.62
2022-08-02T03:48:53.332Z,18.71
2022-08-02T03:59:13.666Z,18.97
2022-08-02T04:09:15.556Z,19.22
2022-08-02T04:19:26.675Z,19.29
2022-08-02T04:29:30.548Z,19.43
2022-08-02T04:39:32.529Z,19.68
2022-08-02T04:49:34.729Z,20.01
2022-08-02T04:59:36.585Z,20.35
2022-08-02T05:09:38.521Z,20.76
2022-08-02T05:19:41.460Z,21.23
2022-08-02T05:29:51.174Z,22.12
2022-08-02T05:39:56.497Z,23.98
2022-08-02T05:49:58.961Z,28.68
2022-08-02T06:00:11.355Z,33.54
2022-08-02T06:10:20.734Z,37.24
2022-08-02T06:20:24.287Z,41.03
2022-08-02T06:30:26.886Z,43.82
2022-08-02T06:40:48.426Z,45.34
2022-08-02T06:50:50.591Z,44.17
2022-08-02T07:00:53.874Z,44.10
2022-08-02T07:10:58.428Z,44.13
2022-08-02T07:21:00.408Z,46.04
2022-08-02T07:31:02.493Z,48.15
2022-08-02T07:41:04.791Z,47.20
2022-08-02T07:51:06.986Z,49.63
2022-08-02T08:01:10.264Z,54.28
2022-08-02T08:11:12.332Z,57.30
2022-08-02T08:21:14.459Z,59.59
2022-08-02T08:31:16.435Z,61.67
2022-08-02T08:41:19.522Z,62.99
2022-08-02T08:51:24.770Z,63.37
2022-08-02T09:01:27.325Z,64.35
2022-08-02T09:11:49.690Z,65.27
2022-08-02T09:22:00.957Z,66.52
2022-08-02T09:44:12.831Z,69.74
2022-08-02T09:54:24.606Z,69.41
2022-08-02T10:16:18.961Z,66.54
2022-08-02T10:37:21.661Z,60.81
2022-08-02T10:47:54.583Z,58.12
2022-08-02T10:59:06.168Z,47.89
2022-08-02T11:09:32.781Z,40.91
2022-08-02T11:19:55.842Z,37.35
2022-08-02T11:30:39.145Z,35.49
2022-08-02T11:41:17.248Z,35.55
2022-08-02T11:51:54.248Z,34.75
2022-08-02T12:13:21.225Z,33.81
2022-08-02T12:24:01.792Z,33.21
2022-08-02T12:34:15.334Z,32.87
2022-08-02T12:44:19.766Z,32.91
2022-08-02T12:54:31.002Z,32.36
2022-08-02T13:04:34.836Z,31.30
2022-08-02T13:14:41.707Z,30.59
2022-08-02T13:25:07.632Z,30.88
2022-08-02T13:35:34.898Z,30.95
2022-08-02T13:45:37.069Z,30.72
2022-08-02T13:55:43.388Z,30.29
2022-08-02T14:05:49.042Z,29.93
2022-08-02T14:15:51.430Z,29.64
2022-08-02T14:25:53.430Z,29.39
2022-08-02T14:35:57.039Z,29.55
2022-08-02T14:45:59.329Z,29.69
2022-08-02T14:56:01.355Z,29.77
2022-08-02T15:06:03.337Z,29.50
2022-08-02T15:16:05.757Z,29.14
2022-08-02T15:26:07.705Z,28.97
2022-08-02T15:36:10.178Z,28.51
2022-08-02T15:46:12.399Z,27.83
2022-08-02T15:56:14.495Z,27.22
2022-08-02T16:06:18.418Z,27.14
2022-08-02T16:16:22.530Z,27.80
2022-08-02T16:26:26.557Z,27.78
2022-08-02T16:36:28.835Z,27.07
2022-08-02T16:46:31.196Z,26.29
2022-08-02T16:56:34.055Z,25.75
2022-08-02T17:06:47.591Z,25.34
2022-08-02T17:16:54.197Z,25.13
2022-08-02T17:26:56.099Z,24.99
2022-08-02T17:36:58.026Z,24.98
2022-08-02T17:47:00.012Z,24.93
2022-08-02T17:57:04.432Z,24.62
2022-08-02T18:07:09.910Z,24.33
2022-08-02T18:17:14.428Z,23.83
2022-08-02T18:27:16.492Z,23.14
2022-08-02T18:37:18.614Z,22.71
2022-08-02T18:47:20.750Z,22.67
2022-08-02T18:58:02.487Z,22.69
2022-08-02T19:07:50.802Z,22.43
2022-08-02T19:17:57.318Z,22.08
2022-08-02T19:27:59.385Z,21.85
2022-08-02T19:38:09.783Z,21.62
2022-08-02T19:48:15.841Z,21.23
2022-08-02T19:58:17.798Z,20.75
2022-08-02T20:08:31.773Z,20.49
2022-08-02T20:18:38.003Z,20.29
2022-08-02T20:28:41.571Z,20.00
2022-08-02T20:38:43.749Z,19.68
2022-08-02T20:48:45.824Z,19.47
2022-08-02T20:58:47.869Z,19.33
2022-08-02T21:08:54.688Z,19.20
2022-08-02T21:19:00.018Z,19.07
2022-08-02T21:29:03.664Z,18.85
2022-08-02T21:39:08.863Z,18.59
2022-08-02T21:49:11.491Z,18.44
2022-08-02T21:59:16.123Z,18.37
2022-08-02T22:09:44.521Z,18.28
2022-08-02T22:19:53.804Z,18.18
2022-08-02T22:29:56.592Z,17.98
2022-08-02T22:40:08.348Z,17.87
2022-08-02T22:50:12.179Z,17.79
2022-08-02T23:00:14.846Z,17.74
2022-08-02T23:10:16.778Z,17.67
2022-08-02T23:20:18.752Z,17.49
2022-08-02T23:30:21.043Z,17.43
2022-08-02T23:40:38.818Z,17.46
2022-08-02T23:50:42.031Z,17.49
